createdAt,value
2022-10-31T00:01:21.498Z,45.47
2022-10-31T00:03:45.042Z,47.83
2022-10-31T00:06:09.171Z,49.53
2022-10-31T00:08:32.760Z,47.78
2022-10-31T00:10:56.305Z,48.78
2022-10-31T00:15:45.839Z,52.22
2022-10-31T00:18:11.304Z,49.65
2022-10-31T00:20:35.197Z,47.47
2022-10-31T00:23:00.719Z,46.55
2022-10-31T00:25:24.245Z,47.10
2022-10-31T00:27:47.774Z,51.50
2022-10-31T00:30:13.822Z,53.63
2022-10-31T00:32:38.236Z,50.40
2022-10-31T00:35:01.947Z,50.67
2022-10-31T00:37:25.750Z,51.35
2022-10-31T00:39:50.617Z,50.85
2022-10-31T00:42:14.154Z,48.55
2022-10-31T00:44:40.306Z,54.42
2022-10-31T00:47:05.537Z,53.38
2022-10-31T00:49:29.254Z,47.25
2022-10-31T00:51:53.190Z,47.78
2022-10-31T00:54:16.796Z,50.08
2022-10-31T00:56:41.147Z,48.25
2022-10-31T00:59:05.349Z,48.35
2022-10-31T01:01:29.065Z,46.28
2022-10-31T01:03:54.154Z,51.10
2022-10-31T01:06:18.174Z,48.72
2022-10-31T01:08:42.734Z,51.65
2022-10-31T01:11:15.690Z,49.90
2022-10-31T01:13:39.552Z,53.63
2022-10-31T01:16:04.272Z,51.80
2022-10-31T01:18:29.993Z,54.65
2022-10-31T01:21:02.980Z,56.30
2022-10-31T01:23:26.532Z,48.40
2022-10-31T01:25:50.072Z,47.35
2022-10-31T01:28:13.733Z,48.42
2022-10-31T01:30:37.269Z,51.50
2022-10-31T01:33:01.077Z,50.17
2022-10-31T01:35:24.968Z,50.97
2022-10-31T01:37:49.926Z,46.58
2022-10-31T01:40:13.615Z,48.17
2022-10-31T01:42:37.660Z,53.17
2022-10-31T01:45:03.748Z,50.13
2022-10-31T01:47:40.789Z,51.47
2022-10-31T01:50:21.366Z,49.47
2022-10-31T01:52:51.114Z,49.55
2022-10-31T01:55:20.674Z,49.20
2022-10-31T01:57:48.977Z,46.13
2022-10-31T02:00:16.410Z,48.83
2022-10-31T02:02:40.236Z,46.08
2022-10-31T02:05:09.455Z,50.60
2022-10-31T02:07:40.524Z,47.25
2022-10-31T02:10:06.568Z,48.17
2022-10-31T02:12:31.164Z,47.78
2022-10-31T02:14:56.557Z,45.25
2022-10-31T02:17:20.151Z,48.17
2022-10-31T02:19:55.003Z,49.15
2022-10-31T02:22:29.176Z,45.28
2022-10-31T02:25:18.662Z,45.67
2022-10-31T02:28:27.657Z,45.95
2022-10-31T02:31:07.378Z,45.47
2022-10-31T02:33:41.402Z,41.50
2022-10-31T02:36:12.912Z,45.25
2022-10-31T02:38:53.696Z,46.85
2022-10-31T02:41:39.546Z,48.92
2022-10-31T02:44:13.712Z,46.58
2022-10-31T02:46:46.687Z,45.47
2022-10-31T02:49:23.294Z,46.70
2022-10-31T02:51:47.674Z,47.92
2022-10-31T02:54:22.289Z,45.70
2022-10-31T02:56:51.459Z,46.85
2022-10-31T02:59:15.274Z,47.47
2022-10-31T03:02:07.233Z,49.00
2022-10-31T03:04:58.760Z,44.58
2022-10-31T03:07:33.285Z,47.30
2022-10-31T03:10:09.705Z,46.55
2022-10-31T03:12:44.547Z,45.40
2022-10-31T03:15:21.897Z,44.25
2022-10-31T03:17:58.921Z,47.83
2022-10-31T03:20:32.387Z,48.22
2022-10-31T03:22:58.461Z,47.15
2022-10-31T03:25:22.082Z,46.75
2022-10-31T03:27:47.042Z,44.80
2022-10-31T03:30:11.687Z,47.08
2022-10-31T03:32:55.516Z,44.75
2022-10-31T03:35:23.223Z,45.55
2022-10-31T03:37:48.894Z,46.90
2022-10-31T03:40:14.943Z,46.70
2022-10-31T03:42:43.702Z,43.90
2022-10-31T03:45:12.751Z,47.95
2022-10-31T03:47:40.244Z,46.25
2022-10-31T03:50:06.365Z,45.20
2022-10-31T03:52:35.569Z,47.60
2022-10-31T03:55:02.384Z,42.53
2022-10-31T03:57:31.862Z,42.78
2022-10-31T04:00:00.734Z,45.65
2022-10-31T04:02:31.588Z,45.63
2022-10-31T04:04:55.736Z,43.55
2022-10-31T04:07:22.278Z,42.63
2022-10-31T04:09:49.070Z,43.30
2022-10-31T04:12:16.769Z,44.38
2022-10-31T04:14:47.248Z,43.17
2022-10-31T04:17:17.946Z,41.47
2022-10-31T04:19:42.311Z,42.60
2022-10-31T04:22:07.126Z,43.33
2022-10-31T04:24:32.125Z,42.60
2022-10-31T04:26:55.950Z,45.92
2022-10-31T04:29:20.945Z,42.42
2022-10-31T04:31:44.509Z,44.33
2022-10-31T04:34:08.411Z,40.03
2022-10-31T04:36:31.984Z,40.75
2022-10-31T04:38:55.824Z,41.35
2022-10-31T04:41:32.536Z,43.90
2022-10-31T04:43:59.065Z,42.10
2022-10-31T04:46:24.473Z,38.75
2022-10-31T04:48:48.211Z,40.10
2022-10-31T04:51:13.014Z,42.47
2022-10-31T04:53:37.060Z,40.13
2022-10-31T04:56:18.867Z,39.10
2022-10-31T04:58:46.410Z,43.38
2022-10-31T05:01:10.331Z,38.00
2022-10-31T05:03:34.018Z,37.28
2022-10-31T05:05:57.533Z,39.10
2022-10-31T05:08:21.226Z,41.53
2022-10-31T05:10:47.681Z,40.97
2022-10-31T05:13:11.851Z,40.92
2022-10-31T05:15:55.742Z,38.83
2022-10-31T05:18:19.331Z,40.33
2022-10-31T05:21:01.221Z,40.83
2022-10-31T05:23:39.767Z,41.95
2022-10-31T05:26:06.392Z,38.20
2022-10-31T05:28:31.030Z,39.65
2022-10-31T05:30:56.413Z,40.30
2022-10-31T05:33:20.046Z,38.20
2022-10-31T05:36:02.010Z,39.38
2022-10-31T05:38:35.461Z,40.42
2022-10-31T05:41:07.742Z,38.08
2022-10-31T05:43:32.038Z,40.00
2022-10-31T05:45:58.877Z,38.17
2022-10-31T05:49:01.740Z,37.35
2022-10-31T05:51:44.831Z,38.90
2022-10-31T05:54:11.976Z,38.85
2022-10-31T05:56:38.873Z,40.30
2022-10-31T05:59:02.598Z,36.40
2022-10-31T06:01:27.830Z,38.13
2022-10-31T06:03:52.988Z,37.33
2022-10-31T06:06:20.154Z,37.05
2022-10-31T06:08:43.869Z,38.10
2022-10-31T06:11:17.225Z,37.22
2022-10-31T06:14:12.894Z,36.50
2022-10-31T06:16:58.338Z,37.05
2022-10-31T06:19:40.194Z,36.67
2022-10-31T06:22:05.071Z,36.42
2022-10-31T06:24:29.833Z,37.78
2022-10-31T06:27:16.513Z,36.03
2022-10-31T06:29:40.353Z,34.55
2022-10-31T06:32:12.946Z,33.78
2022-10-31T06:34:39.991Z,33.90
2022-10-31T06:37:04.963Z,35.25
2022-10-31T06:39:28.710Z,34.60
2022-10-31T06:41:52.413Z,34.65
2022-10-31T06:44:18.298Z,33.85
2022-10-31T06:46:41.916Z,32.05
2022-10-31T06:49:32.764Z,32.75
2022-10-31T06:51:59.479Z,34.55
2022-10-31T06:54:23.596Z,34.47
2022-10-31T06:56:48.854Z,36.35
2022-10-31T06:59:13.144Z,35.17
2022-10-31T07:02:05.954Z,37.97
2022-10-31T07:04:32.184Z,33.10
2022-10-31T07:06:55.870Z,35.15
2022-10-31T07:09:19.558Z,36.20
2022-10-31T07:11:44.188Z,38.83
2022-10-31T07:14:07.961Z,35.72
2022-10-31T07:16:31.489Z,35.95
2022-10-31T07:18:55.122Z,32.80
2022-10-31T07:21:20.193Z,33.38
2022-10-31T07:23:43.886Z,35.35
2022-10-31T07:26:39.146Z,34.53
2022-10-31T07:29:02.744Z,32.88
2022-10-31T07:31:26.571Z,33.60
2022-10-31T07:33:54.258Z,31.45
2022-10-31T07:36:25.166Z,33.58
2022-10-31T07:38:51.697Z,32.38
2022-10-31T07:41:15.581Z,31.27
2022-10-31T07:43:41.250Z,30.08
2022-10-31T07:46:27.992Z,29.70
2022-10-31T07:49:29.907Z,31.00
2022-10-31T07:52:13.589Z,31.38
2022-10-31T07:54:55.393Z,30.23
2022-10-31T07:57:24.139Z,29.25
2022-10-31T07:59:48.653Z,28.77
2022-10-31T08:02:14.352Z,28.88
2022-10-31T08:04:58.691Z,28.52
2022-10-31T08:07:44.840Z,30.27
2022-10-31T08:10:15.209Z,28.98
2022-10-31T08:12:38.785Z,27.42
2022-10-31T08:15:04.829Z,26.90
2022-10-31T08:17:28.601Z,27.90
2022-10-31T08:19:54.484Z,27.38
2022-10-31T08:22:22.825Z,28.38
2022-10-31T08:24:48.173Z,26.65
2022-10-31T08:27:11.810Z,28.80
2022-10-31T08:29:36.706Z,26.63
2022-10-31T08:32:01.546Z,26.23
2022-10-31T08:34:43.746Z,26.52
2022-10-31T08:37:25.725Z,27.40
2022-10-31T08:39:53.267Z,27.35
2022-10-31T08:42:17.861Z,28.35
2022-10-31T08:44:41.569Z,26.35
2022-10-31T08:47:05.842Z,24.52
2022-10-31T08:49:31.185Z,23.73
2022-10-31T08:51:54.782Z,22.90
2022-10-31T08:54:18.437Z,21.60
2022-10-31T08:56:58.117Z,21.75
2022-10-31T08:59:31.882Z,21.80
2022-10-31T09:02:18.059Z,21.38
2022-10-31T09:04:41.767Z,20.88
2022-10-31T09:07:21.458Z,19.88
2022-10-31T09:09:45.561Z,19.40
2022-10-31T09:12:11.174Z,20.52
2022-10-31T09:15:03.814Z,20.10
2022-10-31T09:17:41.337Z,19.00
2022-10-31T09:20:25.269Z,19.10
2022-10-31T09:22:49.392Z,19.67
2022-10-31T09:25:13.048Z,18.77
2022-10-31T09:27:39.466Z,18.48
2022-10-31T09:30:03.785Z,20.10
2022-10-31T09:32:27.378Z,18.85
2022-10-31T09:34:50.958Z,19.50
2022-10-31T09:37:17.286Z,19.30
2022-10-31T09:39:40.858Z,19.13
2022-10-31T09:42:46.377Z,19.13
2022-10-31T09:45:28.735Z,18.63
2022-10-31T09:48:12.382Z,18.60
2022-10-31T09:51:05.291Z,18.77
2022-10-31T09:53:46.154Z,20.30
2022-10-31T09:56:17.756Z,18.75
2022-10-31T09:58:47.161Z,20.13
2022-10-31T10:01:30.505Z,19.05
2022-10-31T10:04:00.882Z,17.52
2022-10-31T10:06:54.329Z,19.05
2022-10-31T10:09:50.011Z,18.40
2022-10-31T10:13:02.356Z,18.63
2022-10-31T10:16:02.493Z,17.98
2022-10-31T10:18:40.160Z,18.17
2022-10-31T10:21:25.293Z,18.63
2022-10-31T10:24:06.231Z,17.45
2022-10-31T10:26:38.322Z,19.40
2022-10-31T10:29:13.208Z,18.80
2022-10-31T10:31:43.932Z,18.98
2022-10-31T10:34:19.363Z,18.75
2022-10-31T10:36:48.629Z,19.08
2022-10-31T10:39:19.589Z,19.00
2022-10-31T10:42:02.896Z,18.40
2022-10-31T10:44:43.884Z,18.77
2022-10-31T10:47:26.815Z,19.70
2022-10-31T10:49:53.857Z,18.75
2022-10-31T10:52:43.558Z,18.15
2022-10-31T10:55:20.834Z,17.92
2022-10-31T10:57:57.742Z,19.25
2022-10-31T11:00:24.256Z,18.98
2022-10-31T11:02:49.676Z,18.20
2022-10-31T11:05:30.698Z,19.23
2022-10-31T11:07:54.493Z,19.52
2022-10-31T11:10:19.353Z,20.02
2022-10-31T11:12:44.343Z,20.10
2022-10-31T11:15:20.514Z,20.50
2022-10-31T11:17:44.464Z,22.13
2022-10-31T11:20:32.366Z,21.15
2022-10-31T11:23:06.969Z,20.65
2022-10-31T11:25:30.893Z,21.30
2022-10-31T11:28:02.539Z,21.33
2022-10-31T11:30:26.162Z,21.35
2022-10-31T11:32:53.466Z,22.77
2022-10-31T11:35:21.604Z,23.13
2022-10-31T11:37:48.540Z,22.20
2022-10-31T11:40:21.371Z,21.52
2022-10-31T11:42:45.586Z,21.48
2022-10-31T11:45:17.301Z,22.83
2022-10-31T11:47:46.273Z,22.90
2022-10-31T11:50:14.392Z,24.67
2022-10-31T11:52:42.230Z,23.88
2022-10-31T11:55:19.861Z,24.38
2022-10-31T11:57:47.588Z,25.48
2022-10-31T12:02:50.182Z,25.80
2022-10-31T12:05:22.175Z,27.00
2022-10-31T12:07:47.324Z,27.17
2022-10-31T12:10:14.557Z,27.45
2022-10-31T12:13:00.521Z,30.02
2022-10-31T12:15:35.386Z,28.25
2022-10-31T12:18:27.872Z,27.73
2022-10-31T12:21:04.491Z,27.20
2022-10-31T12:23:44.667Z,27.65
2022-10-31T12:26:19.869Z,26.83
2022-10-31T12:29:08.379Z,26.20
2022-10-31T12:31:51.755Z,27.13
2022-10-31T12:34:55.428Z,26.35
2022-10-31T12:37:34.864Z,26.23
2022-10-31T12:40:20.352Z,27.48
2022-10-31T12:42:57.666Z,27.45
2022-10-31T12:45:43.566Z,28.80
2022-10-31T12:48:35.620Z,27.83
2022-10-31T12:51:09.600Z,30.05
2022-10-31T12:53:54.746Z,27.83
2022-10-31T12:56:36.235Z,30.17
2022-10-31T12:59:06.653Z,28.20
2022-10-31T13:01:35.984Z,29.02
2022-10-31T13:04:08.285Z,29.27
2022-10-31T13:06:44.361Z,29.73
2022-10-31T13:09:14.026Z,28.00
2022-10-31T13:11:46.049Z,28.83
2022-10-31T13:14:17.589Z,29.73
2022-10-31T13:16:46.546Z,27.52
2022-10-31T13:19:18.938Z,29.20
2022-10-31T13:21:51.288Z,29.60
2022-10-31T13:24:20.225Z,28.10
2022-10-31T13:26:51.340Z,28.70
2022-10-31T13:29:23.177Z,28.08
2022-10-31T13:31:48.610Z,30.48
2022-10-31T13:34:25.467Z,32.03
2022-10-31T13:36:59.105Z,31.90
2022-10-31T13:39:34.541Z,33.03
2022-10-31T13:42:06.546Z,32.97
2022-10-31T13:44:35.904Z,33.75
2022-10-31T13:47:01.925Z,33.55
2022-10-31T13:49:40.908Z,34.15
2022-10-31T13:52:25.430Z,35.05
2022-10-31T13:54:56.702Z,36.08
2022-10-31T13:57:33.086Z,35.67
2022-10-31T14:00:03.305Z,36.67
2022-10-31T14:02:38.396Z,36.85
2022-10-31T14:05:06.880Z,37.22
2022-10-31T14:07:33.817Z,37.38
2022-10-31T14:10:01.698Z,38.53
2022-10-31T14:12:32.652Z,37.97
2022-10-31T14:15:06.501Z,39.55
2022-10-31T14:17:39.416Z,37.78
2022-10-31T14:20:36.920Z,38.03
2022-10-31T14:23:00.766Z,37.10
2022-10-31T14:25:30.362Z,36.78
2022-10-31T14:27:55.757Z,37.67
2022-10-31T14:30:23.974Z,40.67
2022-10-31T14:32:56.757Z,38.75
2022-10-31T14:35:21.698Z,40.65
2022-10-31T14:38:23.890Z,41.53
2022-10-31T14:41:09.331Z,41.17
2022-10-31T14:44:13.188Z,42.28
2022-10-31T14:46:48.756Z,42.97
2022-10-31T14:49:29.074Z,42.17
2022-10-31T14:51:54.487Z,44.67
2022-10-31T14:54:35.118Z,43.50
2022-10-31T14:57:05.192Z,45.53
2022-10-31T14:59:34.633Z,44.08
2022-10-31T15:02:02.581Z,42.38
2022-10-31T15:04:28.416Z,43.30
2022-10-31T15:06:57.746Z,44.30
2022-10-31T15:09:28.121Z,44.17
2022-10-31T15:11:51.809Z,42.67
2022-10-31T15:14:26.537Z,44.80
2022-10-31T15:16:52.159Z,45.10
2022-10-31T15:19:23.466Z,48.05
2022-10-31T15:21:47.878Z,44.53
2022-10-31T15:24:17.065Z,46.95
2022-10-31T15:26:42.663Z,47.13
2022-10-31T15:29:12.611Z,47.38
2022-10-31T15:31:36.533Z,47.70
2022-10-31T15:34:09.234Z,44.83
2022-10-31T15:36:37.308Z,44.40
2022-10-31T15:39:02.112Z,42.47
2022-10-31T15:41:34.454Z,42.22
2022-10-31T15:44:04.054Z,45.20
2022-10-31T15:46:28.783Z,44.00
2022-10-31T15:48:52.336Z,46.50
2022-10-31T15:51:17.326Z,41.83
2022-10-31T15:53:48.998Z,38.97
2022-10-31T15:56:16.261Z,40.60
2022-10-31T15:58:47.017Z,41.67
2022-10-31T16:01:24.678Z,41.70
2022-10-31T16:04:01.910Z,42.85
2022-10-31T16:06:26.890Z,42.42
2022-10-31T16:08:54.442Z,40.30
2022-10-31T16:11:25.958Z,40.08
2022-10-31T16:14:02.600Z,42.60
2022-10-31T16:16:36.278Z,40.75
2022-10-31T16:19:02.841Z,44.28
2022-10-31T16:21:32.705Z,44.70
2022-10-31T16:24:05.764Z,43.13
2022-10-31T16:26:30.260Z,37.47
2022-10-31T16:29:03.327Z,43.08
2022-10-31T16:31:33.090Z,39.35
2022-10-31T16:34:06.489Z,40.65
2022-10-31T16:36:39.517Z,42.08
2022-10-31T16:39:03.131Z,46.10
2022-10-31T16:41:27.546Z,43.55
2022-10-31T16:43:52.546Z,40.60
2022-10-31T16:46:25.056Z,49.78
2022-10-31T16:48:48.638Z,41.22
2022-10-31T16:51:12.286Z,43.22
2022-10-31T16:53:40.597Z,42.85
2022-10-31T16:56:07.753Z,51.25
2022-10-31T16:58:34.418Z,45.92
2022-10-31T17:00:58.628Z,41.83
2022-10-31T17:03:22.669Z,42.35
2022-10-31T17:05:46.589Z,47.45
2022-10-31T17:08:10.243Z,51.80
2022-10-31T17:10:35.723Z,43.20
2022-10-31T17:13:00.171Z,49.72
2022-10-31T17:15:26.885Z,53.40
2022-10-31T17:17:50.662Z,56.03
2022-10-31T17:20:22.113Z,56.65
2022-10-31T17:22:45.743Z,53.35
2022-10-31T17:25:12.901Z,51.45
2022-10-31T17:27:37.906Z,52.75
2022-10-31T17:30:01.413Z,52.90
2022-10-31T17:32:25.071Z,51.30
2022-10-31T17:34:48.590Z,53.40
2022-10-31T17:37:12.618Z,44.33
2022-10-31T17:39:36.198Z,51.92
2022-10-31T17:41:59.797Z,47.25
2022-10-31T17:44:24.722Z,46.00
2022-10-31T17:46:48.314Z,47.40
2022-10-31T17:49:13.081Z,42.75
2022-10-31T17:51:36.885Z,43.72
2022-10-31T17:54:00.606Z,41.65
2022-10-31T17:56:24.232Z,55.42
2022-10-31T17:58:47.721Z,40.80
2022-10-31T18:01:17.597Z,41.78
2022-10-31T18:03:41.963Z,43.88
2022-10-31T18:06:06.072Z,47.58
2022-10-31T18:08:31.301Z,55.38
2022-10-31T18:10:55.129Z,42.80
2022-10-31T18:13:18.709Z,60.53
2022-10-31T18:15:42.254Z,51.17
2022-10-31T18:18:07.954Z,49.13
2022-10-31T18:20:31.499Z,48.33
2022-10-31T18:22:55.576Z,49.83
2022-10-31T18:25:19.583Z,51.53
2022-10-31T18:27:43.153Z,46.83
2022-10-31T18:30:08.343Z,45.25
2022-10-31T18:32:31.921Z,56.50
2022-10-31T18:34:56.842Z,57.90
2022-10-31T18:37:20.373Z,45.67
2022-10-31T18:39:43.956Z,45.90
2022-10-31T18:42:07.596Z,54.00
2022-10-31T18:44:32.083Z,50.33
2022-10-31T18:46:55.898Z,45.55
2022-10-31T18:49:22.718Z,54.50
2022-10-31T18:51:47.664Z,43.47
2022-10-31T18:54:12.182Z,50.90
2022-10-31T18:56:35.715Z,51.70
2022-10-31T18:59:02.276Z,50.08
2022-10-31T19:01:25.871Z,68.82
2022-10-31T19:03:55.758Z,48.75
2022-10-31T19:06:19.326Z,48.30
2022-10-31T19:08:44.245Z,57.67
2022-10-31T19:11:09.164Z,49.55
2022-10-31T19:13:34.199Z,49.35
2022-10-31T19:15:57.774Z,43.60
2022-10-31T19:18:21.354Z,57.47
2022-10-31T19:20:44.920Z,48.72
2022-10-31T19:23:08.605Z,50.22
2022-10-31T19:25:33.833Z,53.72
2022-10-31T19:27:57.417Z,42.85
2022-10-31T19:30:21.413Z,45.75
2022-10-31T19:32:44.983Z,46.10
2022-10-31T19:35:11.056Z,44.35
2022-10-31T19:37:34.686Z,52.50
2022-10-31T19:39:58.233Z,46.70
2022-10-31T19:42:24.324Z,54.17
2022-10-31T19:44:47.903Z,46.78
2022-10-31T19:47:12.175Z,43.65
2022-10-31T19:49:35.790Z,53.83
2022-10-31T19:51:59.389Z,53.35
2022-10-31T19:54:22.958Z,52.22
2022-10-31T19:56:46.582Z,47.85
2022-10-31T19:59:11.699Z,52.47
2022-10-31T20:01:35.453Z,50.67
2022-10-31T20:03:59.182Z,51.13
2022-10-31T20:06:26.933Z,45.33
2022-10-31T20:08:50.718Z,55.97
2022-10-31T20:11:14.449Z,50.70
2022-10-31T20:13:38.188Z,67.32
2022-10-31T20:16:06.721Z,52.95
2022-10-31T20:18:30.883Z,57.10
2022-10-31T20:20:54.804Z,45.13
2022-10-31T20:23:18.348Z,50.08
2022-10-31T20:25:49.589Z,51.15
2022-10-31T20:28:13.161Z,51.53
2022-10-31T20:30:38.177Z,56.05
2022-10-31T20:33:03.475Z,48.55
2022-10-31T20:35:27.337Z,50.10
2022-10-31T20:37:50.945Z,50.28
2022-10-31T20:40:14.503Z,51.42
2022-10-31T20:42:38.218Z,44.75
2022-10-31T20:45:01.741Z,49.13
2022-10-31T20:47:25.997Z,54.05
2022-10-31T20:49:51.262Z,56.08
2022-10-31T20:52:14.905Z,65.18
2022-10-31T20:54:38.477Z,53.15
2022-10-31T20:57:02.065Z,50.20
2022-10-31T20:59:25.562Z,51.40
2022-10-31T21:01:49.281Z,57.58
2022-10-31T21:04:13.037Z,49.28
2022-10-31T21:06:37.970Z,57.30
2022-10-31T21:09:01.483Z,52.95
2022-10-31T21:11:27.785Z,51.03
2022-10-31T21:13:52.338Z,61.55
2022-10-31T21:16:18.268Z,65.30
2022-10-31T21:18:44.455Z,51.03
2022-10-31T21:21:10.284Z,58.35
2022-10-31T21:23:35.276Z,50.78
2022-10-31T21:25:58.933Z,61.20
2022-10-31T21:28:22.583Z,53.05
2022-10-31T21:30:49.818Z,50.65
2022-10-31T21:33:14.155Z,65.25
2022-10-31T21:35:38.059Z,51.15
2022-10-31T21:38:02.082Z,67.38
2022-10-31T21:40:27.499Z,53.38
2022-10-31T21:42:50.998Z,62.45
2022-10-31T21:45:14.607Z,59.30
2022-10-31T21:47:38.113Z,65.35
2022-10-31T21:50:01.658Z,68.05
2022-10-31T21:52:25.194Z,59.53
2022-10-31T21:54:47.938Z,60.53
2022-10-31T21:57:12.934Z,59.53
2022-10-31T21:59:36.514Z,58.72
2022-10-31T22:02:01.445Z,58.13
2022-10-31T22:04:25.931Z,60.22
2022-10-31T22:06:49.610Z,61.38
2022-10-31T22:09:15.625Z,62.33
2022-10-31T22:11:39.294Z,62.40
2022-10-31T22:14:05.079Z,61.08
2022-10-31T22:16:30.806Z,60.85
2022-10-31T22:18:55.873Z,65.43
2022-10-31T22:21:22.893Z,59.75
2022-10-31T22:23:51.367Z,62.15
2022-10-31T22:26:17.489Z,62.80
2022-10-31T22:28:41.657Z,65.72
2022-10-31T22:31:07.874Z,62.92
2022-10-31T22:33:31.535Z,63.13
2022-10-31T22:35:55.055Z,67.75
2022-10-31T22:38:18.617Z,66.05
2022-10-31T22:40:42.219Z,58.05
2022-10-31T22:43:05.851Z,60.17
2022-10-31T22:45:29.414Z,65.47
2022-10-31T22:47:54.360Z,61.15
2022-10-31T22:50:18.080Z,64.65
2022-10-31T22:52:41.713Z,58.47
2022-10-31T22:55:05.902Z,61.20
2022-10-31T22:57:29.520Z,57.05
2022-10-31T22:59:53.321Z,62.15
2022-10-31T23:02:17.111Z,60.08
2022-10-31T23:04:42.104Z,59.65
2022-10-31T23:07:05.677Z,55.28
2022-10-31T23:09:30.017Z,59.85
2022-10-31T23:11:53.656Z,61.63
2022-10-31T23:14:20.863Z,54.95
2022-10-31T23:16:48.253Z,58.78
2022-10-31T23:19:14.846Z,55.83
2022-10-31T23:21:56.499Z,62.28
2022-10-31T23:24:20.842Z,57.90
2022-10-31T23:27:01.855Z,58.35
2022-10-31T23:29:25.545Z,52.60
2022-10-31T23:31:49.214Z,55.05
2022-10-31T23:34:13.037Z,57.88
2022-10-31T23:36:36.562Z,57.97
2022-10-31T23:39:01.627Z,53.30
2022-10-31T23:41:25.218Z,54.83
2022-10-31T23:43:48.817Z,58.55
2022-10-31T23:46:12.317Z,56.10
2022-10-31T23:48:35.913Z,55.92
2022-10-31T23:50:59.419Z,56.97
2022-10-31T23:53:23.078Z,55.55
2022-10-31T23:55:48.014Z,52.60
2022-10-31T23:58:11.577Z,54.70
